createdAt,value
2017-07-01T00:02:20.039Z,1.00
2017-07-01T00:04:48.316Z,0.90
2017-07-01T00:07:16.642Z,0.95
2017-07-01T00:09:45.672Z,0.75
2017-07-01T00:12:13.959Z,0.82
2017-07-01T00:14:43.036Z,1.12
2017-07-01T00:17:11.312Z,0.95
2017-07-01T00:19:40.348Z,1.10
2017-07-01T00:22:08.655Z,0.73
2017-07-01T00:24:36.933Z,0.80
2017-07-01T00:27:05.206Z,0.80
2017-07-01T00:29:33.537Z,1.10
2017-07-01T00:32:02.580Z,0.80
2017-07-01T00:34:30.852Z,0.90
2017-07-01T00:36:59.172Z,0.80
2017-07-01T00:39:27.449Z,0.70
2017-07-01T00:41:55.736Z,0.62
2017-07-01T00:44:24.060Z,0.70
2017-07-01T00:46:52.356Z,0.70
2017-07-01T00:49:20.646Z,0.70
2017-07-01T00:51:49.819Z,0.93
2017-07-01T00:54:18.860Z,0.90
2017-07-01T00:56:47.136Z,0.75
2017-07-01T00:59:15.524Z,0.85
2017-07-01T01:01:44.565Z,0.80
2017-07-01T01:04:12.847Z,0.77
2017-07-01T01:06:41.193Z,0.80
2017-07-01T01:09:09.472Z,0.90
2017-07-01T01:11:37.753Z,0.70
2017-07-01T01:14:06.837Z,0.95
2017-07-01T01:16:35.875Z,0.70
2017-07-01T01:19:04.156Z,0.60
2017-07-01T01:21:32.468Z,0.70
2017-07-01T01:24:00.745Z,0.93
2017-07-01T01:26:29.040Z,0.90
2017-07-01T01:28:57.368Z,0.90
2017-07-01T01:31:25.648Z,0.90
2017-07-01T01:33:53.941Z,0.75
2017-07-01T01:36:22.244Z,0.80
2017-07-01T01:38:50.584Z,0.70
2017-07-01T01:41:18.855Z,1.10
2017-07-01T01:43:47.163Z,0.70
2017-07-01T01:46:15.457Z,0.70
2017-07-01T01:48:44.529Z,0.75
2017-07-01T01:51:13.603Z,0.68
2017-07-01T01:53:42.648Z,0.70
2017-07-01T01:56:10.920Z,0.90
2017-07-01T01:58:39.244Z,0.70
2017-07-01T02:01:07.780Z,0.70
2017-07-01T02:03:36.825Z,1.00
2017-07-01T02:06:05.139Z,0.73
2017-07-01T02:08:39.963Z,0.90
2017-07-01T02:11:08.279Z,0.80
2017-07-01T02:13:36.556Z,0.80
2017-07-01T02:16:06.495Z,0.80
2017-07-01T02:18:34.812Z,1.00
2017-07-01T02:21:07.515Z,0.50
2017-07-01T02:23:38.800Z,0.55
2017-07-01T02:26:07.904Z,0.60
2017-07-01T02:28:36.945Z,0.60
2017-07-01T02:31:05.267Z,0.50
2017-07-01T02:36:41.762Z,0.60
2017-07-01T02:39:10.028Z,0.50
2017-07-01T02:41:38.324Z,0.40
2017-07-01T02:44:06.624Z,0.50
2017-07-01T02:46:36.552Z,1.10
2017-07-01T02:49:33.336Z,0.40
2017-07-01T02:52:07.408Z,0.50
2017-07-01T02:54:42.217Z,0.50
2017-07-01T02:57:11.248Z,0.50
2017-07-01T02:59:46.996Z,0.45
2017-07-01T03:02:15.272Z,0.47
2017-07-01T03:04:43.553Z,0.40
2017-07-01T03:07:16.472Z,0.45
2017-07-01T03:09:44.740Z,0.40
2017-07-01T03:12:13.004Z,0.50
2017-07-01T03:14:41.332Z,0.60
2017-07-01T03:17:09.604Z,0.40
2017-07-01T03:19:37.891Z,0.50
2017-07-01T03:22:06.219Z,0.50
2017-07-01T03:24:37.316Z,0.50
2017-07-01T03:27:05.604Z,0.50
2017-07-01T03:29:33.892Z,0.60
2017-07-01T03:32:02.160Z,0.55
2017-07-01T03:34:31.316Z,0.47
2017-07-01T03:37:18.207Z,0.50
2017-07-01T03:39:58.508Z,0.57
2017-07-01T03:42:46.617Z,0.50
2017-07-01T03:45:21.892Z,0.60
2017-07-01T03:48:06.519Z,0.40
2017-07-01T03:50:35.579Z,0.50
2017-07-01T03:53:19.531Z,0.45
2017-07-01T03:55:48.616Z,0.50
2017-07-01T03:58:30.776Z,0.47
2017-07-01T04:00:59.105Z,0.55
2017-07-01T04:03:27.377Z,0.50
2017-07-01T04:05:55.648Z,0.50
2017-07-01T04:08:23.962Z,0.60
2017-07-01T04:10:52.228Z,0.52
2017-07-01T04:13:20.496Z,0.50
2017-07-01T04:15:48.803Z,0.70
2017-07-01T04:18:31.948Z,0.60
2017-07-01T04:21:00.266Z,0.60
2017-07-01T04:23:28.544Z,0.60
2017-07-01T04:25:56.808Z,0.60
2017-07-01T04:28:25.892Z,0.60
2017-07-01T04:30:54.928Z,0.50
2017-07-01T04:33:23.322Z,0.50
2017-07-01T04:35:51.623Z,0.60
2017-07-01T04:38:33.600Z,0.50
2017-07-01T04:41:01.903Z,0.65
2017-07-01T04:43:32.920Z,0.62
2017-07-01T04:46:04.128Z,0.85
2017-07-01T04:48:33.227Z,0.60
2017-07-01T04:51:13.327Z,0.50
2017-07-01T04:53:58.260Z,0.70
2017-07-01T04:56:49.040Z,0.62
2017-07-01T04:59:18.035Z,0.60
2017-07-01T05:01:47.740Z,0.60
2017-07-01T05:04:24.716Z,0.70
2017-07-01T05:06:53.059Z,0.70
2017-07-01T05:09:38.064Z,0.52
2017-07-01T05:12:06.335Z,0.70
2017-07-01T05:15:00.164Z,0.50
2017-07-01T05:17:42.111Z,0.70
2017-07-01T05:20:24.259Z,0.70
2017-07-01T05:22:59.384Z,0.90
2017-07-01T05:25:39.222Z,1.25
2017-07-01T05:28:07.493Z,0.82
2017-07-01T05:30:46.496Z,0.65
2017-07-01T05:33:32.396Z,0.60
2017-07-01T05:36:03.152Z,0.70
2017-07-01T05:38:38.369Z,0.65
2017-07-01T05:41:06.713Z,0.60
2017-07-01T05:43:47.617Z,0.52
2017-07-01T05:46:15.967Z,0.82
2017-07-01T05:48:56.708Z,0.70
2017-07-01T05:51:25.024Z,0.65
2017-07-01T05:53:54.073Z,0.62
2017-07-01T05:56:23.137Z,0.60
2017-07-01T05:58:51.436Z,0.70
2017-07-01T06:01:20.471Z,0.60
2017-07-01T06:03:48.742Z,0.60
2017-07-01T06:06:18.829Z,0.60
2017-07-01T06:08:47.158Z,0.60
2017-07-01T06:11:18.277Z,0.60
2017-07-01T06:13:57.931Z,0.68
2017-07-01T06:16:26.263Z,0.70
2017-07-01T06:18:55.309Z,0.65
2017-07-01T06:21:42.360Z,0.73
2017-07-01T06:24:15.724Z,0.70
2017-07-01T06:27:16.232Z,0.57
2017-07-01T06:30:24.971Z,0.70
2017-07-01T06:32:54.004Z,1.12
2017-07-01T06:35:31.888Z,0.60
2017-07-01T06:38:30.715Z,0.68
2017-07-01T06:41:28.468Z,0.70
2017-07-01T06:44:20.465Z,0.68
2017-07-01T06:46:55.503Z,0.70
2017-07-01T06:49:23.804Z,0.68
2017-07-01T06:52:01.996Z,0.80
2017-07-01T06:54:30.303Z,0.77
2017-07-01T06:56:58.776Z,0.62
2017-07-01T06:59:27.044Z,0.70
2017-07-01T07:01:55.439Z,0.60
2017-07-01T07:04:23.715Z,0.70
2017-07-01T07:06:51.972Z,0.80
2017-07-01T07:09:20.284Z,0.80
2017-07-01T07:11:48.551Z,0.65
2017-07-01T07:14:16.832Z,0.80
2017-07-01T07:16:45.156Z,0.88
2017-07-01T07:19:13.428Z,0.60
2017-07-01T07:21:41.703Z,0.75
2017-07-01T07:24:10.016Z,0.68
2017-07-01T07:26:39.047Z,0.80
2017-07-01T07:29:10.220Z,0.68
2017-07-01T07:31:38.510Z,0.73
2017-07-01T07:34:06.780Z,0.88
2017-07-01T07:36:35.109Z,0.65
2017-07-01T07:39:03.367Z,0.70
2017-07-01T07:41:32.400Z,0.85
2017-07-01T07:44:00.712Z,1.02
2017-07-01T07:46:29.747Z,0.82
2017-07-01T07:48:58.027Z,0.80
2017-07-01T07:51:26.348Z,1.05
2017-07-01T07:53:54.625Z,0.98
2017-07-01T07:56:22.904Z,0.80
2017-07-01T07:58:51.200Z,0.95
2017-07-01T08:01:20.231Z,0.80
2017-07-01T08:03:48.522Z,0.98
2017-07-01T08:06:16.852Z,0.80
2017-07-01T08:08:45.120Z,0.70
2017-07-01T08:11:13.388Z,0.85
2017-07-01T08:13:41.691Z,0.62
2017-07-01T08:16:10.724Z,0.80
2017-07-01T08:18:38.991Z,0.70
2017-07-01T08:21:07.488Z,0.52
2017-07-01T08:23:36.519Z,0.60
2017-07-01T08:26:04.784Z,0.52
2017-07-01T08:28:33.092Z,0.50
2017-07-01T08:31:02.137Z,0.50
2017-07-01T08:33:30.403Z,0.50
2017-07-01T08:35:58.721Z,0.50
2017-07-01T08:38:27.031Z,0.68
2017-07-01T08:40:55.304Z,0.70
2017-07-01T08:43:23.929Z,0.80
2017-07-01T08:45:52.200Z,0.70
2017-07-01T08:48:20.468Z,0.70
2017-07-01T08:50:48.763Z,0.60
2017-07-01T08:53:17.039Z,0.60
2017-07-01T08:55:46.075Z,0.60
2017-07-01T08:58:14.383Z,0.70
2017-07-01T09:00:43.412Z,0.70
2017-07-01T09:03:11.676Z,0.70
2017-07-01T09:05:39.991Z,0.60
2017-07-01T09:08:08.260Z,0.75
2017-07-01T09:10:36.532Z,0.70
2017-07-01T09:13:04.852Z,0.60
2017-07-01T09:15:33.128Z,0.60
2017-07-01T09:18:02.213Z,0.50
2017-07-01T09:20:30.528Z,0.75
2017-07-01T09:22:58.791Z,0.70
2017-07-01T09:25:27.117Z,0.65
2017-07-01T09:27:55.421Z,0.77
2017-07-01T09:30:23.701Z,0.60
2017-07-01T09:32:52.953Z,0.80
2017-07-01T09:35:21.260Z,0.70
2017-07-01T09:37:50.292Z,0.68
2017-07-01T09:40:18.560Z,0.62
2017-07-01T09:42:47.065Z,0.62
2017-07-01T09:45:16.100Z,0.65
2017-07-01T09:47:44.364Z,0.50
2017-07-01T09:50:12.751Z,0.65
2017-07-01T09:52:41.029Z,0.60
2017-07-01T09:55:10.059Z,0.60
2017-07-01T09:57:38.380Z,0.62
2017-07-01T10:00:07.408Z,0.50
2017-07-01T10:02:35.680Z,0.70
2017-07-01T10:05:04.168Z,0.73
2017-07-01T10:07:33.211Z,0.60
2017-07-01T10:10:01.508Z,0.60
2017-07-01T10:12:29.817Z,0.60
2017-07-01T10:14:58.084Z,0.60
2017-07-01T10:17:26.372Z,0.60
2017-07-01T10:19:54.696Z,0.60
2017-07-01T10:22:22.980Z,0.50
2017-07-01T10:24:51.248Z,0.60
2017-07-01T10:27:19.556Z,0.65
2017-07-01T10:29:48.592Z,0.57
2017-07-01T10:32:16.863Z,0.50
2017-07-01T10:34:45.177Z,0.55
2017-07-01T10:37:13.440Z,0.50
2017-07-01T10:39:41.700Z,0.60
2017-07-01T10:42:10.022Z,0.60
2017-07-01T10:44:38.321Z,0.55
2017-07-01T10:47:06.592Z,0.50
2017-07-01T10:49:34.895Z,0.50
2017-07-01T10:52:03.208Z,0.60
2017-07-01T10:54:31.472Z,0.60
2017-07-01T10:56:59.779Z,0.85
2017-07-01T10:59:28.047Z,0.73
2017-07-01T11:01:56.319Z,0.50
2017-07-01T11:04:25.415Z,0.68
2017-07-01T11:06:53.680Z,0.70
2017-07-01T11:09:22.713Z,0.75
2017-07-01T11:11:51.008Z,0.50
2017-07-01T11:14:20.041Z,0.60
2017-07-01T11:16:48.307Z,0.52
2017-07-01T11:19:16.621Z,0.60
2017-07-01T11:21:45.648Z,0.65
2017-07-01T11:24:13.916Z,0.60
2017-07-01T11:26:42.231Z,0.70
2017-07-01T11:29:10.496Z,0.60
2017-07-01T11:31:38.768Z,0.60
2017-07-01T11:34:07.084Z,0.70
2017-07-01T11:36:35.347Z,0.68
2017-07-01T11:39:04.408Z,0.90
2017-07-01T11:41:32.720Z,0.50
2017-07-01T11:44:00.984Z,0.70
2017-07-01T11:46:29.251Z,0.60
2017-07-01T11:48:57.580Z,0.60
2017-07-01T11:51:26.607Z,0.60
2017-07-01T11:53:54.883Z,0.80
2017-07-01T11:56:23.191Z,0.70
2017-07-01T11:58:52.215Z,0.80
2017-07-01T12:01:20.488Z,0.70
2017-07-01T12:03:48.808Z,0.70
2017-07-01T12:06:17.076Z,0.60
2017-07-01T12:08:45.352Z,0.70
2017-07-01T12:11:13.677Z,0.60
2017-07-01T12:13:42.701Z,0.60
2017-07-01T12:16:10.968Z,0.50
2017-07-01T12:18:39.273Z,0.60
2017-07-01T12:21:08.308Z,0.60
2017-07-01T12:23:36.580Z,0.60
2017-07-01T12:26:04.884Z,0.70
2017-07-01T12:28:33.156Z,0.60
2017-07-01T12:31:01.419Z,0.60
2017-07-01T12:33:29.724Z,0.60
2017-07-01T12:35:57.991Z,0.52
2017-07-01T12:38:26.267Z,0.62
2017-07-01T12:40:54.745Z,0.80
2017-07-01T12:43:23.785Z,0.68
2017-07-01T12:45:52.059Z,0.55
2017-07-01T12:48:20.387Z,0.50
2017-07-01T12:50:48.660Z,0.50
2017-07-01T12:53:16.927Z,0.62
2017-07-01T12:55:45.240Z,0.70
2017-07-01T12:58:14.276Z,0.50
2017-07-01T13:00:42.538Z,0.60
2017-07-01T13:03:10.843Z,0.55
2017-07-01T13:05:39.113Z,0.80
2017-07-01T13:08:07.382Z,0.77
2017-07-01T13:10:35.699Z,0.57
2017-07-01T13:13:03.968Z,0.60
2017-07-01T13:15:32.999Z,0.60
2017-07-01T13:18:01.320Z,0.70
2017-07-01T13:20:31.296Z,0.60
2017-07-01T13:22:59.555Z,0.60
2017-07-01T13:25:27.868Z,0.70
2017-07-01T13:27:56.144Z,0.80
2017-07-01T13:30:24.409Z,0.60
2017-07-01T13:32:52.828Z,0.70
2017-07-01T13:35:21.859Z,0.77
2017-07-01T13:37:50.128Z,0.60
2017-07-01T13:40:18.435Z,0.70
2017-07-01T13:42:47.476Z,0.70
2017-07-01T13:45:15.740Z,0.80
2017-07-01T13:47:44.057Z,0.80
2017-07-01T13:50:12.324Z,0.70
2017-07-01T13:52:40.591Z,0.60
2017-07-01T13:55:08.917Z,0.62
2017-07-01T13:57:38.148Z,0.50
2017-07-01T14:00:06.440Z,0.57
2017-07-01T14:02:34.759Z,0.70
2017-07-01T14:05:03.028Z,0.70
2017-07-01T14:07:31.295Z,0.70
2017-07-01T14:09:59.612Z,1.00
2017-07-01T14:12:28.647Z,0.70
2017-07-01T14:14:56.920Z,0.80
2017-07-01T14:17:25.232Z,0.75
2017-07-01T14:19:53.513Z,0.60
2017-07-01T14:22:21.777Z,1.00
2017-07-01T14:24:50.075Z,0.60
2017-07-01T14:27:18.348Z,0.60
2017-07-01T14:29:46.616Z,0.90
2017-07-01T14:32:15.682Z,0.57
2017-07-01T14:34:43.949Z,0.60
2017-07-01T14:37:12.988Z,0.50
2017-07-01T14:39:41.292Z,0.70
2017-07-01T14:42:10.324Z,0.50
2017-07-01T14:44:38.592Z,0.60
2017-07-01T14:47:06.907Z,1.77
2017-07-01T14:49:35.944Z,0.60
2017-07-01T14:52:04.219Z,0.75
2017-07-01T14:54:32.609Z,0.70
2017-07-01T14:57:01.643Z,0.60
2017-07-01T14:59:29.912Z,0.70
2017-07-01T15:01:58.211Z,0.70
2017-07-01T15:04:26.492Z,0.70
2017-07-01T15:06:54.763Z,0.65
2017-07-01T15:09:23.064Z,0.70
2017-07-01T15:11:51.333Z,0.88
2017-07-01T15:14:19.609Z,0.70
2017-07-01T15:16:48.665Z,0.70
2017-07-01T15:19:16.932Z,0.70
2017-07-01T15:21:45.195Z,0.80
2017-07-01T15:24:13.496Z,0.85
2017-07-01T15:26:41.980Z,0.80
2017-07-01T15:29:10.253Z,0.80
2017-07-01T15:31:38.547Z,0.75
2017-07-01T15:34:06.817Z,0.85
2017-07-01T15:36:35.851Z,0.90
2017-07-01T15:39:04.152Z,0.80
2017-07-01T15:41:32.425Z,0.85
2017-07-01T15:44:01.447Z,0.80
2017-07-01T15:46:29.745Z,0.77
2017-07-01T15:48:58.009Z,0.85
2017-07-01T15:51:26.308Z,0.70
2017-07-01T15:53:54.740Z,0.73
2017-07-01T15:56:23.012Z,0.62
2017-07-01T15:58:52.044Z,0.70
2017-07-01T16:01:32.273Z,1.10
2017-07-01T16:04:00.547Z,0.90
2017-07-01T16:06:28.805Z,0.88
2017-07-01T16:08:57.156Z,0.90
2017-07-01T16:11:25.420Z,0.95
2017-07-01T16:13:53.688Z,0.98
2017-07-01T16:16:21.993Z,1.48
2017-07-01T16:18:50.263Z,1.00
2017-07-01T16:21:19.299Z,1.00
2017-07-01T16:23:47.607Z,1.05
2017-07-01T16:26:16.640Z,1.05
2017-07-01T16:28:44.916Z,1.00
2017-07-01T16:31:13.400Z,1.20
2017-07-01T16:33:42.442Z,1.10
2017-07-01T16:36:10.724Z,1.50
2017-07-01T16:38:39.044Z,1.20
2017-07-01T16:41:07.312Z,1.52
2017-07-01T16:43:35.575Z,1.48
2017-07-01T16:46:03.876Z,1.40
2017-07-01T16:48:32.140Z,1.45
2017-07-01T16:51:00.408Z,1.33
2017-07-01T16:53:29.475Z,1.58
2017-07-01T16:55:57.752Z,1.30
2017-07-01T16:58:26.797Z,1.50
2017-07-01T17:00:55.100Z,1.70
2017-07-01T17:03:24.136Z,1.95
2017-07-01T17:05:52.397Z,1.67
2017-07-01T17:08:20.708Z,1.30
2017-07-01T17:10:49.748Z,1.20
2017-07-01T17:13:18.021Z,1.50
2017-07-01T17:15:46.493Z,1.27
2017-07-01T17:18:14.765Z,1.27
2017-07-01T17:20:43.793Z,1.23
2017-07-01T17:23:12.092Z,1.10
2017-07-01T17:25:40.370Z,1.62
2017-07-01T17:28:09.391Z,0.93
2017-07-01T17:30:37.700Z,1.12
2017-07-01T17:33:06.737Z,1.30
2017-07-01T17:35:35.003Z,0.80
2017-07-01T17:38:03.309Z,0.95
2017-07-01T17:40:32.340Z,1.10
2017-07-01T17:43:00.604Z,1.30
2017-07-01T17:45:28.920Z,1.10
2017-07-01T17:47:57.952Z,1.02
2017-07-01T17:50:26.224Z,0.98
2017-07-01T17:52:54.527Z,1.05
2017-07-01T17:55:22.808Z,0.82
2017-07-01T17:57:51.076Z,0.95
2017-07-01T18:00:19.380Z,0.90
2017-07-01T18:02:47.644Z,0.77
2017-07-01T18:05:15.920Z,0.80
2017-07-01T18:07:44.987Z,0.85
2017-07-01T18:10:13.260Z,1.20
2017-07-01T18:12:42.292Z,1.00
2017-07-01T18:15:10.591Z,0.95
2017-07-01T18:17:38.860Z,0.80
2017-07-01T18:20:07.891Z,0.90
2017-07-01T18:22:36.200Z,1.12
2017-07-01T18:25:05.235Z,0.90
2017-07-01T18:27:33.500Z,1.00
2017-07-01T18:30:02.010Z,1.20
2017-07-01T18:32:31.044Z,0.93
2017-07-01T18:34:59.311Z,0.98
2017-07-01T18:37:27.616Z,0.93
2017-07-01T18:39:56.652Z,0.90
2017-07-01T18:42:24.919Z,1.02
2017-07-01T18:44:53.229Z,1.05
2017-07-01T18:47:21.496Z,0.82
2017-07-01T18:49:49.797Z,1.35
2017-07-01T18:52:18.104Z,0.85
2017-07-01T18:54:47.140Z,1.35
2017-07-01T18:57:15.408Z,1.02
2017-07-01T18:59:43.720Z,0.90
2017-07-01T19:02:11.988Z,1.12
2017-07-01T19:04:40.251Z,1.00
2017-07-01T19:07:08.552Z,1.27
2017-07-01T19:09:36.816Z,1.02
2017-07-01T19:12:05.088Z,1.25
2017-07-01T19:14:33.387Z,1.00
2017-07-01T19:17:01.656Z,1.10
2017-07-01T19:19:29.936Z,1.10
2017-07-01T19:21:58.232Z,0.82
2017-07-01T19:24:26.512Z,1.10
2017-07-01T19:26:55.552Z,1.35
2017-07-01T19:29:23.863Z,1.00
2017-07-01T19:31:52.136Z,1.10
2017-07-01T19:34:20.405Z,1.20
2017-07-01T19:36:48.703Z,1.20
2017-07-01T19:39:16.967Z,1.23
2017-07-01T19:41:45.244Z,1.10
2017-07-01T19:44:13.548Z,1.30
2017-07-01T19:46:41.811Z,1.10
2017-07-01T19:49:10.083Z,1.45
2017-07-01T19:51:38.384Z,1.35
2017-07-01T19:54:06.656Z,1.23
2017-07-01T19:56:35.698Z,1.05
2017-07-01T19:59:04.016Z,1.52
2017-07-01T20:01:33.048Z,0.80
2017-07-01T20:04:01.319Z,1.00
2017-07-01T20:06:29.615Z,1.67
2017-07-01T20:08:58.647Z,0.98
2017-07-01T20:11:26.928Z,1.48
2017-07-01T20:13:55.228Z,1.00
2017-07-01T20:16:23.504Z,1.10
2017-07-01T20:18:51.856Z,1.08
2017-07-01T20:21:20.168Z,1.10
2017-07-01T20:23:48.432Z,1.25
2017-07-01T20:26:16.696Z,1.12
2017-07-01T20:28:44.991Z,0.85
2017-07-01T20:31:13.267Z,1.27
2017-07-01T20:33:41.540Z,0.93
2017-07-01T20:36:09.955Z,1.02
2017-07-01T20:38:38.995Z,1.00
2017-07-01T20:41:07.264Z,1.00
2017-07-01T20:43:35.591Z,1.50
2017-07-01T20:46:03.859Z,1.25
2017-07-01T20:48:32.128Z,1.40
2017-07-01T20:51:00.439Z,1.20
2017-07-01T20:53:28.712Z,1.12
2017-07-01T20:55:57.751Z,1.95
2017-07-01T20:58:26.072Z,1.05
2017-07-01T21:00:54.364Z,1.20
2017-07-01T21:03:22.636Z,1.58
2017-07-01T21:05:50.938Z,1.20
2017-07-01T21:08:19.968Z,1.30
2017-07-01T21:10:48.244Z,1.40
2017-07-01T21:13:16.539Z,1.30
2017-07-01T21:15:45.619Z,1.15
2017-07-01T21:18:13.880Z,1.25
2017-07-01T21:20:43.056Z,1.60
2017-07-01T21:23:12.103Z,1.80
2017-07-01T21:25:40.470Z,1.15
2017-07-01T21:28:08.859Z,1.90
2017-07-01T21:30:37.892Z,1.33
2017-07-01T21:33:06.159Z,1.37
2017-07-01T21:35:34.471Z,1.40
2017-07-01T21:38:03.520Z,1.30
2017-07-01T21:40:31.795Z,1.50
2017-07-01T21:43:00.096Z,1.45
2017-07-01T21:45:28.368Z,1.62
2017-07-01T21:47:56.679Z,1.10
2017-07-01T21:50:24.972Z,1.62
2017-07-01T21:52:53.258Z,1.45
2017-07-01T21:55:21.524Z,1.20
2017-07-01T21:57:50.868Z,1.30
2017-07-01T22:00:19.892Z,1.45
2017-07-01T22:02:48.216Z,1.10
2017-07-01T22:05:17.306Z,1.20
2017-07-01T22:07:45.624Z,1.52
2017-07-01T22:10:13.929Z,1.17
2017-07-01T22:12:42.976Z,1.58
2017-07-01T22:15:11.246Z,1.20
2017-07-01T22:17:40.285Z,1.40
2017-07-01T22:20:08.591Z,1.35
2017-07-01T22:22:37.620Z,1.30
2017-07-01T22:25:05.892Z,1.30
2017-07-01T22:27:34.232Z,1.15
2017-07-01T22:30:02.501Z,1.92
2017-07-01T22:32:30.772Z,0.90
2017-07-01T22:34:59.214Z,1.30
2017-07-01T22:37:28.215Z,1.40
2017-07-01T22:39:56.484Z,1.42
2017-07-01T22:42:24.793Z,1.42
2017-07-01T22:44:53.898Z,1.85
2017-07-01T22:47:22.163Z,1.60
2017-07-01T22:49:50.468Z,1.52
2017-07-01T22:52:18.744Z,1.50
2017-07-01T22:54:47.775Z,1.98
2017-07-01T22:57:16.180Z,1.50
2017-07-01T22:59:44.456Z,1.75
2017-07-01T23:02:13.484Z,1.80
2017-07-01T23:04:41.997Z,2.10
2017-07-01T23:07:11.033Z,1.70
2017-07-01T23:09:39.303Z,1.80
2017-07-01T23:12:07.603Z,2.10
2017-07-01T23:14:36.637Z,2.08
2017-07-01T23:17:04.904Z,2.55
2017-07-01T23:19:33.212Z,2.25
2017-07-01T23:22:01.477Z,2.60
2017-07-01T23:24:29.743Z,2.12
2017-07-01T23:26:58.137Z,2.30
2017-07-01T23:29:26.400Z,2.70
2017-07-01T23:31:54.679Z,2.35
2017-07-01T23:34:23.000Z,2.20
2017-07-01T23:36:51.271Z,2.58
2017-07-01T23:39:19.540Z,2.60
2017-07-01T23:41:47.849Z,2.47
2017-07-01T23:44:16.957Z,2.40
2017-07-01T23:46:45.223Z,2.40
2017-07-01T23:49:13.528Z,2.47
2017-07-01T23:51:41.804Z,2.25
2017-07-01T23:54:10.060Z,2.37
2017-07-01T23:56:38.356Z,2.53
2017-07-01T23:59:06.619Z,2.10
